createdAt,value
2018-08-09T00:00:40.406Z,0
2018-08-09T00:01:40.130Z,0
2018-08-09T00:02:40.331Z,0
2018-08-09T00:04:01.765Z,0
2018-08-09T00:05:46.027Z,0
2018-08-09T00:06:46.904Z,0
2018-08-09T00:08:08.549Z,0
2018-08-09T00:09:09.412Z,0
2018-08-09T00:10:09.569Z,0
2018-08-09T00:11:08.616Z,0
2018-08-09T00:12:30.741Z,0
2018-08-09T00:13:31.802Z,0
2018-08-09T00:14:31.396Z,0
2018-08-09T00:15:31.489Z,0
2018-08-09T00:16:31.880Z,0
2018-08-09T00:17:32.107Z,0
2018-08-09T00:18:31.678Z,0
2018-08-09T00:19:31.563Z,0
2018-08-09T00:20:31.096Z,0
2018-08-09T00:21:30.783Z,0
2018-08-09T00:22:32.684Z,0
2018-08-09T00:23:31.723Z,0
2018-08-09T00:24:31.413Z,0
2018-08-09T00:25:31.605Z,0
2018-08-09T00:26:31.383Z,0
2018-08-09T00:27:31.414Z,0
2018-08-09T00:28:53.052Z,0
2018-08-09T00:29:53.576Z,0
2018-08-09T00:30:53.347Z,0
2018-08-09T00:31:53.082Z,0
2018-08-09T00:32:53.822Z,0
2018-08-09T00:33:53.736Z,0
2018-08-09T00:34:54.784Z,0
2018-08-09T00:35:53.760Z,0
2018-08-09T00:37:17.321Z,0
2018-08-09T00:38:17.189Z,0
2018-08-09T00:39:17.443Z,0
2018-08-09T00:40:18.084Z,0
2018-08-09T00:41:39.739Z,0
2018-08-09T00:42:40.402Z,0
2018-08-09T00:43:40.460Z,0
2018-08-09T00:44:40.339Z,0
2018-08-09T00:45:40.314Z,0
2018-08-09T00:46:40.265Z,0
2018-08-09T00:47:40.059Z,0
2018-08-09T00:48:39.965Z,0
2018-08-09T00:49:39.831Z,0
2018-08-09T00:50:39.880Z,0
2018-08-09T00:51:39.637Z,0
2018-08-09T00:52:39.680Z,0
2018-08-09T00:53:39.581Z,0
2018-08-09T00:54:40.511Z,0
2018-08-09T00:55:40.300Z,0
2018-08-09T00:57:01.655Z,0
2018-08-09T00:58:02.573Z,0
2018-08-09T00:59:45.122Z,0
2018-08-09T01:00:45.873Z,0
2018-08-09T01:01:45.484Z,0
2018-08-09T01:02:45.367Z,0
2018-08-09T01:04:07.445Z,0
2018-08-09T01:05:08.290Z,0
2018-08-09T01:06:07.927Z,0
2018-08-09T01:07:07.640Z,0
2018-08-09T01:08:08.236Z,0
2018-08-09T01:09:07.760Z,0
2018-08-09T01:10:07.593Z,0
2018-08-09T01:11:08.654Z,0
2018-08-09T01:12:08.565Z,0
2018-08-09T01:13:31.427Z,0
2018-08-09T01:14:32.626Z,0
2018-08-09T01:15:55.684Z,0
2018-08-09T01:16:56.642Z,0
2018-08-09T01:17:56.307Z,0
2018-08-09T01:18:56.010Z,0
2018-08-09T01:19:55.643Z,0
2018-08-09T01:20:56.283Z,0
2018-08-09T01:21:56.057Z,0
2018-08-09T01:22:55.705Z,0
2018-08-09T01:23:56.514Z,0
2018-08-09T01:24:56.366Z,0
2018-08-09T01:25:56.182Z,0
2018-08-09T01:26:56.116Z,0
2018-08-09T01:27:55.818Z,0
2018-08-09T01:28:56.738Z,0
2018-08-09T01:29:56.386Z,0
2018-08-09T01:30:57.302Z,0
2018-08-09T01:31:56.286Z,0
2018-08-09T01:32:56.136Z,0
2018-08-09T01:33:56.335Z,0
2018-08-09T01:34:56.331Z,0
2018-08-09T01:36:40.891Z,0
2018-08-09T01:37:41.736Z,0
2018-08-09T01:38:41.669Z,0
2018-08-09T01:39:41.347Z,0
2018-08-09T01:41:02.830Z,0
2018-08-09T01:42:25.154Z,0
2018-08-09T01:44:07.801Z,0
2018-08-09T01:45:29.783Z,0
2018-08-09T01:46:30.392Z,0
2018-08-09T01:47:30.059Z,0
2018-08-09T01:48:30.827Z,0
2018-08-09T01:49:30.519Z,0
2018-08-09T01:50:30.261Z,0
2018-08-09T01:51:30.373Z,0
2018-08-09T01:52:29.954Z,0
2018-08-09T01:53:30.455Z,0
2018-08-09T01:54:30.090Z,0
2018-08-09T01:55:29.813Z,0
2018-08-09T01:56:30.575Z,0
2018-08-09T01:57:30.474Z,0
2018-08-09T01:58:30.280Z,0
2018-08-09T01:59:29.941Z,0
2018-08-09T02:00:29.810Z,0
2018-08-09T02:01:30.525Z,0
2018-08-09T02:02:29.968Z,0
2018-08-09T02:03:30.785Z,0
2018-08-09T02:04:30.735Z,0
2018-08-09T02:05:52.140Z,0
2018-08-09T02:06:53.117Z,0
2018-08-09T02:07:52.852Z,0
2018-08-09T02:08:52.687Z,0
2018-08-09T02:09:52.345Z,0
2018-08-09T02:11:39.018Z,0
2018-08-09T02:12:39.127Z,0
2018-08-09T02:13:39.190Z,0
2018-08-09T02:14:39.155Z,0
2018-08-09T02:15:38.959Z,0
2018-08-09T02:17:00.466Z,0
2018-08-09T02:18:00.944Z,0
2018-08-09T02:19:00.640Z,0
2018-08-09T02:20:01.429Z,0
2018-08-09T02:21:01.346Z,0
2018-08-09T02:22:00.815Z,0
2018-08-09T02:23:23.908Z,0
2018-08-09T02:24:24.781Z,0
2018-08-09T02:25:24.552Z,0
2018-08-09T02:26:24.319Z,0
2018-08-09T02:27:46.541Z,0
2018-08-09T02:28:47.099Z,0
2018-08-09T02:30:08.214Z,0
2018-08-09T02:31:08.013Z,0
2018-08-09T02:32:08.672Z,0
2018-08-09T02:33:08.123Z,0
2018-08-09T02:34:08.921Z,0
2018-08-09T02:35:29.846Z,0
2018-08-09T02:36:30.772Z,0
2018-08-09T02:37:30.257Z,0
2018-08-09T02:38:29.970Z,0
2018-08-09T02:39:30.857Z,0
2018-08-09T02:40:30.995Z,0
2018-08-09T02:41:30.760Z,0
2018-08-09T02:42:30.392Z,0
2018-08-09T02:43:30.073Z,0
2018-08-09T02:44:31.024Z,0
2018-08-09T02:45:30.874Z,0
2018-08-09T02:46:30.489Z,0
2018-08-09T02:47:51.726Z,0
2018-08-09T02:49:13.729Z,0
2018-08-09T02:50:58.949Z,0
2018-08-09T02:52:21.286Z,0
2018-08-09T02:53:21.741Z,0
2018-08-09T02:54:21.445Z,0
2018-08-09T02:56:08.173Z,0
2018-08-09T02:57:07.865Z,0
2018-08-09T02:58:08.730Z,0
2018-08-09T02:59:08.440Z,0
2018-08-09T03:00:08.559Z,0
2018-08-09T03:01:08.516Z,0
2018-08-09T03:02:08.215Z,0
2018-08-09T03:03:08.808Z,0
2018-08-09T03:04:08.805Z,0
2018-08-09T03:05:08.592Z,0
2018-08-09T03:06:08.250Z,0
2018-08-09T03:07:08.260Z,0
2018-08-09T03:08:08.005Z,0
2018-08-09T03:09:08.950Z,0
2018-08-09T03:10:09.007Z,0
2018-08-09T03:11:08.794Z,0
2018-08-09T03:12:08.437Z,0
2018-08-09T03:13:08.406Z,0
2018-08-09T03:14:08.058Z,0
2018-08-09T03:15:07.738Z,0
2018-08-09T03:16:08.455Z,0
2018-08-09T03:17:08.053Z,0
2018-08-09T03:18:08.665Z,0
2018-08-09T03:19:29.549Z,0
2018-08-09T03:20:30.286Z,0
2018-08-09T03:21:29.730Z,0
2018-08-09T03:22:30.540Z,0
2018-08-09T03:24:15.120Z,0
2018-08-09T03:25:16.043Z,0
2018-08-09T03:26:15.666Z,0
2018-08-09T03:27:15.206Z,0
2018-08-09T03:28:39.284Z,0
2018-08-09T03:29:39.925Z,0
2018-08-09T03:30:39.759Z,0
2018-08-09T03:32:25.360Z,0
2018-08-09T03:33:26.302Z,0
2018-08-09T03:34:47.826Z,0
2018-08-09T03:35:48.342Z,0
2018-08-09T03:37:09.530Z,0
2018-08-09T03:38:31.547Z,0
2018-08-09T03:39:53.955Z,0
2018-08-09T03:40:54.659Z,0
2018-08-09T03:41:54.516Z,0
2018-08-09T03:42:54.190Z,0
2018-08-09T03:43:54.773Z,0
2018-08-09T03:44:54.563Z,0
2018-08-09T03:45:54.333Z,0
2018-08-09T03:46:54.951Z,0
2018-08-09T03:47:54.466Z,0
2018-08-09T03:48:54.393Z,1
2018-08-09T03:49:54.275Z,1
2018-08-09T03:50:53.944Z,1
2018-08-09T03:51:54.763Z,1
2018-08-09T03:52:54.217Z,1
2018-08-09T03:53:54.896Z,1
2018-08-09T03:54:54.621Z,1
2018-08-09T03:55:54.431Z,2
2018-08-09T03:56:53.996Z,2
2018-08-09T03:57:55.072Z,2
2018-08-09T03:59:16.056Z,2
2018-08-09T04:00:16.923Z,3
2018-08-09T04:01:16.513Z,3
2018-08-09T04:02:16.279Z,3
2018-08-09T04:03:17.048Z,3
2018-08-09T04:04:38.416Z,4
2018-08-09T04:05:39.241Z,4
2018-08-09T04:06:39.235Z,4
2018-08-09T04:07:39.120Z,5
2018-08-09T04:08:39.093Z,5
2018-08-09T04:09:38.809Z,5
2018-08-09T04:10:38.477Z,6
2018-08-09T04:11:39.838Z,6
2018-08-09T04:12:38.820Z,6
2018-08-09T04:13:38.755Z,7
2018-08-09T04:14:38.678Z,7
2018-08-09T04:16:02.168Z,8
2018-08-09T04:17:03.250Z,8
2018-08-09T04:18:02.806Z,9
2018-08-09T04:19:02.384Z,9
2018-08-09T04:20:03.325Z,10
2018-08-09T04:21:27.311Z,10
2018-08-09T04:22:28.256Z,11
2018-08-09T04:23:28.287Z,11
2018-08-09T04:24:28.046Z,12
2018-08-09T04:25:28.078Z,12
2018-08-09T04:26:28.018Z,13
2018-08-09T04:27:27.811Z,14
2018-08-09T04:28:27.706Z,14
2018-08-09T04:29:27.374Z,15
2018-08-09T04:30:27.471Z,16
2018-08-09T04:31:27.446Z,16
2018-08-09T04:32:48.723Z,17
2018-08-09T04:33:49.444Z,18
2018-08-09T04:34:49.447Z,18
2018-08-09T04:35:49.194Z,19
2018-08-09T04:36:48.935Z,20
2018-08-09T04:37:50.835Z,21
2018-08-09T04:38:48.756Z,21
2018-08-09T04:39:49.535Z,22
2018-08-09T04:40:49.177Z,23
2018-08-09T04:41:49.895Z,23
2018-08-09T04:42:48.734Z,23
2018-08-09T04:43:49.653Z,22
2018-08-09T04:44:49.552Z,22
2018-08-09T04:45:48.995Z,23
2018-08-09T04:46:48.667Z,25
2018-08-09T04:47:49.624Z,28
2018-08-09T04:48:49.190Z,30
2018-08-09T04:49:49.191Z,31
2018-08-09T04:50:49.114Z,32
2018-08-09T04:51:48.987Z,33
2018-08-09T04:52:48.859Z,35
2018-08-09T04:53:48.841Z,37
2018-08-09T04:54:48.622Z,38
2018-08-09T04:55:49.422Z,38
2018-08-09T04:56:49.083Z,40
2018-08-09T04:58:32.593Z,38
2018-08-09T04:59:56.756Z,38
2018-08-09T05:00:56.726Z,39
2018-08-09T05:01:57.353Z,42
2018-08-09T05:03:18.779Z,44
2018-08-09T05:04:19.390Z,45
2018-08-09T05:05:19.493Z,47
2018-08-09T05:06:19.219Z,48
2018-08-09T05:07:19.984Z,49
2018-08-09T05:08:41.697Z,50
2018-08-09T05:09:42.908Z,52
2018-08-09T05:10:42.205Z,52
2018-08-09T05:11:42.413Z,51
2018-08-09T05:13:06.318Z,49
2018-08-09T05:14:07.187Z,49
2018-08-09T05:15:05.984Z,49
2018-08-09T05:16:28.446Z,50
2018-08-09T05:17:29.314Z,50
2018-08-09T05:19:12.771Z,51
2018-08-09T05:20:12.841Z,50
2018-08-09T05:21:12.731Z,50
2018-08-09T05:22:34.095Z,50
2018-08-09T05:23:35.314Z,51
2018-08-09T05:24:58.386Z,53
2018-08-09T05:26:19.964Z,53
2018-08-09T05:27:20.019Z,52
2018-08-09T05:29:30.248Z,51
2018-08-09T05:30:29.952Z,53
2018-08-09T05:31:30.662Z,56
2018-08-09T05:32:30.426Z,59
2018-08-09T05:33:30.437Z,63
2018-08-09T05:34:30.677Z,63
2018-08-09T05:35:30.275Z,63
2018-08-09T05:36:30.047Z,64
2018-08-09T05:37:29.991Z,67
2018-08-09T05:38:30.699Z,71
2018-08-09T05:39:30.905Z,72
2018-08-09T05:40:30.793Z,72
2018-08-09T05:41:30.541Z,73
2018-08-09T05:42:30.491Z,77
2018-08-09T05:43:30.383Z,85
2018-08-09T05:44:30.416Z,88
2018-08-09T05:45:34.765Z,87
2018-08-09T05:46:41.499Z,79
2018-08-09T05:47:30.713Z,72
2018-08-09T05:48:30.588Z,67
2018-08-09T05:49:30.522Z,64
2018-08-09T05:50:30.596Z,63
2018-08-09T05:51:30.453Z,62
2018-08-09T05:52:53.980Z,64
2018-08-09T05:54:18.743Z,62
2018-08-09T05:55:20.131Z,56
2018-08-09T05:56:19.417Z,55
2018-08-09T05:57:19.225Z,60
2018-08-09T05:58:19.178Z,66
2018-08-09T05:59:19.258Z,65
2018-08-09T06:00:40.663Z,64
2018-08-09T06:01:41.481Z,66
2018-08-09T06:02:41.635Z,68
2018-08-09T06:03:40.652Z,69
2018-08-09T06:04:41.285Z,70
2018-08-09T06:05:41.447Z,73
2018-08-09T06:06:41.385Z,76
2018-08-09T06:07:41.236Z,77
2018-08-09T06:08:41.135Z,75
2018-08-09T06:09:41.407Z,75
2018-08-09T06:10:41.353Z,72
2018-08-09T06:11:41.210Z,72
2018-08-09T06:13:25.745Z,76
2018-08-09T06:14:25.654Z,79
2018-08-09T06:15:47.728Z,81
2018-08-09T06:16:47.662Z,84
2018-08-09T06:17:48.555Z,88
2018-08-09T06:18:47.615Z,92
2018-08-09T06:19:48.445Z,89
2018-08-09T06:20:48.401Z,83
2018-08-09T06:21:48.261Z,77
2018-08-09T06:22:48.188Z,77
2018-08-09T06:23:48.733Z,79
2018-08-09T06:24:47.543Z,82
2018-08-09T06:25:48.698Z,80
2018-08-09T06:26:48.210Z,75
2018-08-09T06:27:48.297Z,67
2018-08-09T06:28:48.336Z,64
2018-08-09T06:29:48.471Z,64
2018-08-09T06:31:10.904Z,63
2018-08-09T06:32:11.964Z,72
2018-08-09T06:33:11.167Z,81
2018-08-09T06:34:11.540Z,84
2018-08-09T06:35:11.682Z,84
2018-08-09T06:36:34.016Z,79
2018-08-09T06:37:34.151Z,81
2018-08-09T06:38:56.584Z,102
2018-08-09T06:39:56.602Z,106
2018-08-09T06:42:01.745Z,107
2018-08-09T06:43:01.646Z,122
2018-08-09T06:44:02.027Z,132
2018-08-09T06:45:02.055Z,124
2018-08-09T06:46:02.099Z,113
2018-08-09T06:47:02.516Z,111
2018-08-09T06:48:23.992Z,109
2018-08-09T06:49:24.018Z,112
2018-08-09T06:50:24.429Z,119
2018-08-09T06:51:24.663Z,122
2018-08-09T06:52:24.411Z,121
2018-08-09T06:53:24.495Z,114
2018-08-09T06:54:24.237Z,102
2018-08-09T06:55:24.195Z,93
2018-08-09T06:56:24.540Z,96
2018-08-09T06:57:23.612Z,108
2018-08-09T06:58:47.855Z,124
2018-08-09T06:59:48.932Z,117
2018-08-09T07:00:48.601Z,110
2018-08-09T07:01:48.821Z,114
2018-08-09T07:02:48.221Z,124
2018-08-09T07:03:50.666Z,125
2018-08-09T07:04:48.513Z,120
2018-08-09T07:05:48.389Z,116
2018-08-09T07:06:48.226Z,116
2018-08-09T07:08:12.454Z,102
2018-08-09T07:09:12.219Z,89
2018-08-09T07:10:34.111Z,84
2018-08-09T07:11:35.353Z,92
2018-08-09T07:12:34.535Z,106
2018-08-09T07:13:34.800Z,117
2018-08-09T07:14:34.929Z,121
2018-08-09T07:15:58.556Z,121
2018-08-09T07:16:59.520Z,124
2018-08-09T07:17:58.638Z,129
2018-08-09T07:18:58.870Z,140
2018-08-09T07:19:59.043Z,150
2018-08-09T07:20:59.313Z,157
2018-08-09T07:21:59.141Z,167
2018-08-09T07:22:59.222Z,168
2018-08-09T07:23:59.430Z,165
2018-08-09T07:24:58.552Z,172
2018-08-09T07:25:59.519Z,176
2018-08-09T07:26:58.795Z,177
2018-08-09T07:28:20.448Z,170
2018-08-09T07:29:21.405Z,164
2018-08-09T07:30:21.493Z,159
2018-08-09T07:31:46.147Z,151
2018-08-09T07:32:49.318Z,146
2018-08-09T07:33:45.367Z,151
2018-08-09T07:34:46.155Z,167
2018-08-09T07:35:46.123Z,184
2018-08-09T07:36:46.320Z,195
2018-08-09T07:38:08.014Z,208
2018-08-09T07:39:09.803Z,233
2018-08-09T07:40:09.116Z,299
2018-08-09T07:41:11.404Z,418
2018-08-09T07:42:31.341Z,259
2018-08-09T07:43:53.772Z,172
2018-08-09T07:45:17.914Z,144
2018-08-09T07:46:18.328Z,137
2018-08-09T07:47:18.664Z,124
2018-08-09T07:48:17.793Z,113
2018-08-09T07:49:17.698Z,113
2018-08-09T07:50:17.996Z,125
2018-08-09T07:51:17.927Z,135
2018-08-09T07:52:17.724Z,135
2018-08-09T07:53:17.967Z,125
2018-08-09T07:54:18.042Z,115
2018-08-09T07:55:18.058Z,107
2018-08-09T07:56:18.165Z,108
2018-08-09T07:57:18.246Z,119
2018-08-09T07:58:18.260Z,131
2018-08-09T08:00:05.801Z,143
2018-08-09T08:01:07.040Z,137
2018-08-09T08:02:06.740Z,132
2018-08-09T08:03:06.072Z,123
2018-08-09T08:04:06.408Z,115
2018-08-09T08:05:06.297Z,111
2018-08-09T08:06:06.622Z,110
2018-08-09T08:07:06.401Z,114
2018-08-09T08:08:06.173Z,124
2018-08-09T08:09:06.033Z,141
2018-08-09T08:10:06.086Z,160
2018-08-09T08:11:06.187Z,180
2018-08-09T08:12:30.110Z,164
2018-08-09T08:13:31.078Z,147
2018-08-09T08:14:55.366Z,142
2018-08-09T08:15:55.540Z,147
2018-08-09T08:16:55.608Z,151
2018-08-09T08:17:55.644Z,155
2018-08-09T08:18:55.542Z,167
2018-08-09T08:19:55.824Z,188
2018-08-09T08:20:55.844Z,202
2018-08-09T08:21:55.736Z,204
2018-08-09T08:23:18.031Z,232
2018-08-09T08:24:18.105Z,170
2018-08-09T08:25:40.981Z,152
2018-08-09T08:26:41.460Z,153
2018-08-09T08:27:41.751Z,216
2018-08-09T08:29:03.834Z,168
2018-08-09T08:30:04.765Z,166
2018-08-09T08:31:04.582Z,167
2018-08-09T08:32:04.561Z,170
2018-08-09T08:33:28.294Z,179
2018-08-09T08:34:51.334Z,183
2018-08-09T08:36:16.342Z,173
2018-08-09T08:37:15.892Z,166
2018-08-09T08:38:17.714Z,159
2018-08-09T08:39:16.840Z,153
2018-08-09T08:40:16.890Z,145
2018-08-09T08:41:16.979Z,137
2018-08-09T08:42:40.959Z,134
2018-08-09T08:43:41.704Z,141
2018-08-09T08:44:41.744Z,146
2018-08-09T08:45:41.614Z,143
2018-08-09T08:46:42.972Z,135
2018-08-09T08:47:42.368Z,134
2018-08-09T08:48:41.745Z,157
2018-08-09T08:49:41.643Z,203
2018-08-09T08:50:41.518Z,257
2018-08-09T08:52:04.009Z,302
2018-08-09T08:53:04.440Z,293
2018-08-09T08:54:05.217Z,298
2018-08-09T08:55:04.188Z,420
2018-08-09T08:56:04.573Z,241
2018-08-09T08:57:26.557Z,181
2018-08-09T08:59:12.398Z,145
2018-08-09T09:00:13.295Z,137
2018-08-09T09:01:13.040Z,135
2018-08-09T09:02:15.851Z,140
2018-08-09T09:03:12.852Z,147
2018-08-09T09:04:36.460Z,157
2018-08-09T09:05:36.794Z,157
2018-08-09T09:06:37.478Z,146
2018-08-09T09:07:36.409Z,132
2018-08-09T09:08:37.669Z,121
2018-08-09T09:09:37.045Z,117
2018-08-09T09:11:01.318Z,118
2018-08-09T09:12:23.604Z,114
2018-08-09T09:13:23.823Z,110
2018-08-09T09:14:23.696Z,110
2018-08-09T09:15:23.665Z,111
2018-08-09T09:16:23.694Z,114
2018-08-09T09:17:24.796Z,117
2018-08-09T09:18:23.955Z,118
2018-08-09T09:19:24.094Z,119
2018-08-09T09:20:24.254Z,119
2018-08-09T09:21:24.044Z,121
2018-08-09T09:22:24.326Z,127
2018-08-09T09:23:24.148Z,137
2018-08-09T09:24:45.928Z,156
2018-08-09T09:25:46.809Z,168
2018-08-09T09:27:10.587Z,178
2018-08-09T09:28:10.862Z,172
2018-08-09T09:29:10.840Z,164
2018-08-09T09:30:10.931Z,157
2018-08-09T09:31:10.854Z,156
2018-08-09T09:32:34.875Z,169
2018-08-09T09:33:35.991Z,174
2018-08-09T09:35:21.320Z,174
2018-08-09T09:36:21.504Z,178
2018-08-09T09:38:07.073Z,221
2018-08-09T09:39:06.844Z,267
2018-08-09T09:40:07.735Z,314
2018-08-09T09:41:06.632Z,376
2018-08-09T09:42:07.468Z,333
2018-08-09T09:43:07.219Z,334
2018-08-09T09:44:06.980Z,270
2018-08-09T09:45:06.960Z,259
2018-08-09T09:46:06.952Z,398
2018-08-09T09:47:08.453Z,407
2018-08-09T09:48:31.348Z,327
2018-08-09T09:49:31.716Z,409
2018-08-09T09:50:33.064Z,712
2018-08-09T09:51:32.165Z,713
2018-08-09T09:52:31.419Z,449
2018-08-09T09:53:31.418Z,340
2018-08-09T09:54:31.256Z,389
2018-08-09T09:55:54.921Z,649
2018-08-09T09:56:54.886Z,656
2018-08-09T09:57:54.839Z,663
2018-08-09T09:58:54.892Z,648
2018-08-09T09:59:54.981Z,656
2018-08-09T10:00:55.344Z,658
2018-08-09T10:01:55.733Z,641
2018-08-09T10:02:55.908Z,561
2018-08-09T10:03:55.013Z,619
2018-08-09T10:05:20.614Z,517
2018-08-09T10:06:26.110Z,415
2018-08-09T10:07:19.231Z,257
2018-08-09T10:08:19.429Z,284
2018-08-09T10:09:43.239Z,242
2018-08-09T10:10:43.207Z,355
2018-08-09T10:11:43.476Z,314
2018-08-09T10:12:43.675Z,317
2018-08-09T10:13:43.712Z,313
2018-08-09T10:15:30.177Z,443
2018-08-09T10:16:30.277Z,377
2018-08-09T10:17:30.082Z,280
2018-08-09T10:18:29.949Z,348
2018-08-09T10:19:29.857Z,475
2018-08-09T10:20:53.743Z,399
2018-08-09T10:21:53.936Z,563
2018-08-09T10:22:54.145Z,604
2018-08-09T10:23:55.300Z,333
2018-08-09T10:24:54.433Z,297
2018-08-09T10:25:54.756Z,280
2018-08-09T10:26:54.189Z,676
2018-08-09T10:27:54.299Z,664
2018-08-09T10:28:54.943Z,659
2018-08-09T10:29:54.141Z,649
2018-08-09T10:30:54.249Z,654
2018-08-09T10:31:54.285Z,620
2018-08-09T10:32:54.510Z,622
2018-08-09T10:33:55.672Z,605
2018-08-09T10:34:53.487Z,644
2018-08-09T10:36:17.035Z,662
2018-08-09T10:37:17.115Z,641
2018-08-09T10:38:17.359Z,476
2018-08-09T10:39:17.342Z,622
2018-08-09T10:40:17.956Z,330
2018-08-09T10:41:16.884Z,325
2018-08-09T10:42:17.205Z,351
2018-08-09T10:43:42.036Z,292
2018-08-09T10:45:30.016Z,243
2018-08-09T10:46:30.949Z,251
2018-08-09T10:47:30.742Z,278
2018-08-09T10:48:33.159Z,324
2018-08-09T10:49:44.655Z,355
2018-08-09T10:50:55.919Z,417
2018-08-09T10:51:56.764Z,705
2018-08-09T10:52:56.043Z,670
2018-08-09T10:53:56.440Z,689
2018-08-09T10:54:55.535Z,650
2018-08-09T10:56:03.721Z,603
2018-08-09T10:56:55.908Z,591
2018-08-09T10:57:56.053Z,615
2018-08-09T10:58:57.816Z,615
2018-08-09T10:59:55.712Z,590
2018-08-09T11:00:56.087Z,546
2018-08-09T11:01:56.372Z,563
2018-08-09T11:03:19.375Z,603
2018-08-09T11:04:44.381Z,598
2018-08-09T11:05:44.618Z,603
2018-08-09T11:06:43.697Z,591
2018-08-09T11:08:07.574Z,591
2018-08-09T11:09:07.517Z,586
2018-08-09T11:10:08.010Z,591
2018-08-09T11:11:32.620Z,583
2018-08-09T11:12:33.318Z,574
2018-08-09T11:13:37.316Z,598
2018-08-09T11:14:57.463Z,590
2018-08-09T11:15:57.676Z,579
2018-08-09T11:16:57.791Z,588
2018-08-09T11:17:57.972Z,597
2018-08-09T11:18:58.030Z,613
2018-08-09T11:19:58.286Z,617
2018-08-09T11:20:57.411Z,603
2018-08-09T11:21:57.689Z,591
2018-08-09T11:22:58.574Z,615
2018-08-09T11:23:58.334Z,574
2018-08-09T11:25:02.144Z,620
2018-08-09T11:26:02.666Z,634
2018-08-09T11:27:01.684Z,641
2018-08-09T11:27:59.086Z,614
2018-08-09T11:28:57.927Z,635
2018-08-09T11:30:02.578Z,633
2018-08-09T11:30:57.716Z,649
2018-08-09T11:31:58.113Z,660
2018-08-09T11:32:58.060Z,649
2018-08-09T11:33:58.755Z,594
2018-08-09T11:34:57.840Z,668
2018-08-09T11:35:58.173Z,663
2018-08-09T11:36:58.190Z,637
2018-08-09T11:37:57.516Z,629
2018-08-09T11:38:57.789Z,635
2018-08-09T11:39:57.947Z,658
2018-08-09T11:40:59.582Z,674
2018-08-09T11:41:57.653Z,666
2018-08-09T11:42:58.307Z,667
2018-08-09T11:43:58.458Z,651
2018-08-09T11:44:58.487Z,656
2018-08-09T11:45:58.892Z,667
2018-08-09T11:46:58.940Z,688
2018-08-09T11:47:58.669Z,690
2018-08-09T11:48:57.943Z,675
2018-08-09T11:49:59.834Z,663
2018-08-09T11:51:00.293Z,676
2018-08-09T11:52:00.653Z,700
2018-08-09T11:52:59.930Z,731
2018-08-09T11:53:58.638Z,612
2018-08-09T11:54:58.303Z,446
2018-08-09T11:55:58.153Z,361
2018-08-09T11:56:58.151Z,487
2018-08-09T11:58:22.123Z,504
2018-08-09T11:59:22.886Z,560
2018-08-09T12:00:22.979Z,598
2018-08-09T12:01:44.880Z,299
2018-08-09T12:02:53.969Z,403
2018-08-09T12:03:46.640Z,801
2018-08-09T12:05:12.365Z,357
2018-08-09T12:06:44.988Z,481
2018-08-09T12:07:44.972Z,596
2018-08-09T12:08:45.018Z,709
2018-08-09T12:10:09.460Z,722
2018-08-09T12:11:33.324Z,701
2018-08-09T12:13:00.019Z,666
2018-08-09T12:14:23.031Z,639
2018-08-09T12:15:23.289Z,638
2018-08-09T12:16:24.128Z,639
2018-08-09T12:17:23.359Z,631
2018-08-09T12:18:24.781Z,605
2018-08-09T12:19:49.041Z,623
2018-08-09T12:21:36.096Z,664
2018-08-09T12:23:00.292Z,666
2018-08-09T12:24:00.846Z,651
2018-08-09T12:25:05.082Z,664
2018-08-09T12:26:28.170Z,680
2018-08-09T12:27:25.972Z,577
2018-08-09T12:28:25.006Z,582
2018-08-09T12:29:25.698Z,707
2018-08-09T12:30:25.088Z,402
2018-08-09T12:31:31.012Z,674
2018-08-09T12:32:57.963Z,344
2018-08-09T12:33:59.976Z,524
2018-08-09T12:34:58.057Z,587
2018-08-09T12:35:57.972Z,557
2018-08-09T12:36:58.047Z,532
2018-08-09T12:37:58.188Z,535
2018-08-09T12:38:58.332Z,565
2018-08-09T12:39:58.570Z,591
2018-08-09T12:40:58.731Z,612
2018-08-09T12:42:21.964Z,637
2018-08-09T12:43:23.033Z,640
2018-08-09T12:44:22.739Z,591
2018-08-09T12:45:24.527Z,448
2018-08-09T12:46:23.042Z,525
2018-08-09T12:47:23.989Z,464
2018-08-09T12:48:23.156Z,417
2018-08-09T12:49:22.105Z,449
2018-08-09T12:50:22.917Z,420
2018-08-09T12:51:23.378Z,382
2018-08-09T12:52:31.564Z,447
2018-08-09T12:53:29.348Z,520
2018-08-09T12:54:23.393Z,516
2018-08-09T12:55:22.334Z,528
2018-08-09T12:56:43.980Z,558
2018-08-09T12:57:45.009Z,548
2018-08-09T12:58:44.021Z,544
2018-08-09T12:59:45.164Z,533
2018-08-09T13:00:44.465Z,546
2018-08-09T13:02:06.338Z,550
2018-08-09T13:03:07.189Z,551
2018-08-09T13:04:22.387Z,517
2018-08-09T13:05:23.206Z,459
2018-08-09T13:06:22.960Z,428
2018-08-09T13:07:24.037Z,451
2018-08-09T13:08:46.521Z,444
2018-08-09T13:09:46.736Z,433
2018-08-09T13:10:46.932Z,426
2018-08-09T13:11:46.296Z,363
2018-08-09T13:13:10.495Z,348
2018-08-09T13:14:56.605Z,341
2018-08-09T13:15:58.747Z,326
2018-08-09T13:16:58.114Z,297
2018-08-09T13:17:57.312Z,301
2018-08-09T13:18:58.326Z,289
2018-08-09T13:19:57.508Z,321
2018-08-09T13:20:58.009Z,296
2018-08-09T13:21:57.216Z,290
2018-08-09T13:22:58.741Z,289
2018-08-09T13:23:57.416Z,292
2018-08-09T13:24:58.385Z,308
2018-08-09T13:25:57.413Z,322
2018-08-09T13:27:20.624Z,319
2018-08-09T13:28:45.536Z,287
2018-08-09T13:29:45.577Z,259
2018-08-09T13:30:47.398Z,247
2018-08-09T13:31:45.639Z,233
2018-08-09T13:33:08.424Z,218
2018-08-09T13:34:08.690Z,217
2018-08-09T13:35:08.713Z,213
2018-08-09T13:36:08.902Z,212
2018-08-09T13:37:09.556Z,208
2018-08-09T13:38:10.153Z,204
2018-08-09T13:39:09.468Z,200
2018-08-09T13:40:08.724Z,193
2018-08-09T13:41:09.861Z,187
2018-08-09T13:42:08.962Z,180
2018-08-09T13:43:08.959Z,174
2018-08-09T13:44:10.167Z,169
2018-08-09T13:45:08.107Z,164
2018-08-09T13:46:08.222Z,158
2018-08-09T13:47:08.642Z,155
2018-08-09T13:48:09.130Z,151
2018-08-09T13:49:08.436Z,148
2018-08-09T13:50:08.836Z,146
2018-08-09T13:51:09.452Z,144
2018-08-09T13:52:08.752Z,141
2018-08-09T13:53:09.434Z,140
2018-08-09T13:54:08.817Z,140
2018-08-09T13:55:08.729Z,140
2018-08-09T13:56:14.842Z,138
2018-08-09T13:57:09.002Z,136
2018-08-09T13:58:09.021Z,134
2018-08-09T13:59:09.179Z,132
2018-08-09T14:00:31.817Z,129
2018-08-09T14:01:32.506Z,126
2018-08-09T14:02:33.905Z,125
2018-08-09T14:03:32.955Z,125
2018-08-09T14:04:32.259Z,127
2018-08-09T14:05:33.174Z,129
2018-08-09T14:06:32.324Z,130
2018-08-09T14:07:56.265Z,136
2018-08-09T14:08:56.348Z,142
2018-08-09T14:09:56.451Z,151
2018-08-09T14:10:57.023Z,158
2018-08-09T14:12:22.413Z,169
2018-08-09T14:13:23.004Z,172
2018-08-09T14:14:22.193Z,170
2018-08-09T14:15:23.085Z,164
2018-08-09T14:16:22.438Z,154
2018-08-09T14:17:22.998Z,142
2018-08-09T14:18:22.173Z,131
2018-08-09T14:19:22.324Z,121
2018-08-09T14:20:22.462Z,110
2018-08-09T14:21:22.633Z,98
2018-08-09T14:22:22.643Z,88
2018-08-09T14:23:22.840Z,78
2018-08-09T14:24:22.875Z,70
2018-08-09T14:25:21.967Z,64
2018-08-09T14:26:23.706Z,57
2018-08-09T14:27:23.104Z,52
2018-08-09T14:28:46.148Z,44
2018-08-09T14:29:46.690Z,38
2018-08-09T14:30:47.286Z,36
2018-08-09T14:31:46.613Z,35
2018-08-09T14:32:46.497Z,31
2018-08-09T14:33:46.537Z,28
2018-08-09T14:34:46.540Z,26
2018-08-09T14:35:47.312Z,24
2018-08-09T14:36:46.586Z,22
2018-08-09T14:37:54.799Z,21
2018-08-09T14:38:46.840Z,20
2018-08-09T14:39:46.247Z,19
2018-08-09T14:41:11.835Z,18
2018-08-09T14:42:35.019Z,15
2018-08-09T14:43:35.264Z,12
2018-08-09T14:44:59.424Z,10
2018-08-09T14:46:00.815Z,11
2018-08-09T14:47:00.268Z,12
2018-08-09T14:48:00.310Z,12
2018-08-09T14:49:00.475Z,11
2018-08-09T14:49:59.532Z,9
2018-08-09T14:51:23.148Z,5
2018-08-09T14:52:24.362Z,6
2018-08-09T14:53:23.482Z,6
2018-08-09T14:54:24.328Z,3
2018-08-09T14:55:23.274Z,2
2018-08-09T14:56:23.411Z,2
2018-08-09T14:57:47.092Z,3
2018-08-09T14:58:47.922Z,6
2018-08-09T14:59:48.170Z,15
2018-08-09T15:00:47.268Z,27
2018-08-09T15:01:47.988Z,33
2018-08-09T15:02:48.441Z,29
2018-08-09T15:03:47.570Z,22
2018-08-09T15:04:48.626Z,22
2018-08-09T15:05:47.617Z,30
2018-08-09T15:06:49.205Z,30
2018-08-09T15:08:12.477Z,34
2018-08-09T15:09:14.221Z,40
2018-08-09T15:10:13.405Z,43
2018-08-09T15:11:15.640Z,47
2018-08-09T15:12:13.116Z,50
2018-08-09T15:13:13.421Z,54
2018-08-09T15:14:37.319Z,56